createdAt,value
2022-12-29T00:01:23.266Z,76.70
2022-12-29T00:04:15.791Z,76.50
2022-12-29T00:07:01.943Z,76.20
2022-12-29T00:09:47.797Z,76.30
2022-12-29T00:12:53.411Z,76.00
2022-12-29T00:15:38.961Z,76.00
2022-12-29T00:18:24.520Z,75.80
2022-12-29T00:21:33.890Z,75.60
2022-12-29T00:24:27.765Z,74.90
2022-12-29T00:27:32.620Z,74.70
2022-12-29T00:30:40.035Z,74.60
2022-12-29T00:33:52.665Z,74.30
2022-12-29T00:36:43.060Z,74.20
2022-12-29T00:39:47.263Z,73.90
2022-12-29T00:42:51.148Z,73.90
2022-12-29T00:45:36.689Z,73.30
2022-12-29T00:48:41.701Z,73.10
2022-12-29T00:51:27.110Z,72.90
2022-12-29T00:54:12.930Z,73.00
2022-12-29T00:57:00.217Z,72.70
2022-12-29T00:59:46.377Z,72.80
2022-12-29T01:02:34.885Z,72.70
2022-12-29T01:05:20.752Z,73.20
2022-12-29T01:08:06.573Z,73.10
2022-12-29T01:11:00.120Z,73.40
2022-12-29T01:13:45.626Z,73.30
2022-12-29T01:16:31.387Z,73.40
2022-12-29T01:19:18.211Z,72.70
2022-12-29T01:22:03.845Z,73.30
2022-12-29T01:24:50.404Z,73.00
2022-12-29T01:27:38.585Z,73.00
2022-12-29T01:30:23.922Z,72.90
2022-12-29T01:33:11.980Z,72.30
2022-12-29T01:36:05.476Z,72.70
2022-12-29T01:38:51.416Z,73.10
2022-12-29T01:41:37.016Z,73.00
2022-12-29T01:44:52.082Z,73.50
2022-12-29T01:47:47.221Z,74.00
2022-12-29T01:50:42.345Z,74.00
2022-12-29T01:53:34.415Z,73.90
2022-12-29T01:56:21.950Z,74.00
2022-12-29T01:59:12.387Z,74.60
2022-12-29T02:01:58.565Z,74.60
2022-12-29T02:04:47.589Z,74.40
2022-12-29T02:07:33.119Z,75.10
2022-12-29T02:10:24.914Z,75.50
2022-12-29T02:13:11.012Z,75.60
2022-12-29T02:16:16.572Z,76.00
2022-12-29T02:19:34.516Z,76.00
2022-12-29T02:22:44.961Z,76.40
2022-12-29T02:26:06.288Z,76.30
2022-12-29T02:29:10.789Z,76.30
2022-12-29T02:32:06.889Z,76.30
2022-12-29T02:35:11.864Z,75.20
2022-12-29T02:38:35.956Z,74.90
2022-12-29T02:41:30.983Z,74.70
2022-12-29T02:44:30.043Z,73.50
2022-12-29T02:47:36.357Z,74.20
2022-12-29T02:50:26.492Z,74.00
2022-12-29T02:53:38.730Z,72.80
2022-12-29T02:56:24.532Z,72.20
2022-12-29T02:59:11.097Z,72.30
2022-12-29T03:02:17.990Z,72.00
2022-12-29T03:05:21.780Z,71.80
2022-12-29T03:08:28.281Z,71.00
2022-12-29T03:11:33.562Z,70.80
2022-12-29T03:14:57.844Z,70.60
2022-12-29T03:18:03.431Z,69.60
2022-12-29T03:20:57.057Z,68.60
2022-12-29T03:23:48.580Z,68.40
2022-12-29T03:26:34.578Z,68.00
2022-12-29T03:29:21.583Z,67.70
2022-12-29T03:32:09.464Z,67.70
2022-12-29T03:34:57.744Z,67.70
2022-12-29T03:37:53.056Z,67.70
2022-12-29T03:40:42.831Z,67.20
2022-12-29T03:43:31.575Z,67.50
2022-12-29T03:46:17.514Z,67.50
2022-12-29T03:49:07.077Z,67.20
2022-12-29T03:51:52.202Z,67.10
2022-12-29T03:54:37.760Z,66.70
2022-12-29T03:57:23.494Z,66.80
2022-12-29T04:00:09.994Z,67.10
2022-12-29T04:02:58.380Z,66.80
2022-12-29T04:05:44.293Z,66.90
2022-12-29T04:08:29.766Z,66.80
2022-12-29T04:11:15.597Z,67.10
2022-12-29T04:14:01.007Z,67.20
2022-12-29T04:16:51.347Z,67.10
2022-12-29T04:19:37.634Z,67.20
2022-12-29T04:22:25.631Z,67.20
2022-12-29T04:25:14.060Z,67.30
2022-12-29T04:27:59.953Z,67.20
2022-12-29T04:30:46.574Z,67.30
2022-12-29T04:33:32.071Z,66.90
2022-12-29T04:36:17.348Z,67.30
2022-12-29T04:39:06.220Z,67.20
2022-12-29T04:41:54.070Z,67.90
2022-12-29T04:44:44.875Z,67.50
2022-12-29T04:47:30.722Z,67.50
2022-12-29T04:50:19.029Z,67.70
2022-12-29T04:53:06.827Z,67.70
2022-12-29T04:55:53.413Z,67.80
2022-12-29T04:58:38.941Z,67.70
2022-12-29T05:01:27.708Z,68.10
2022-12-29T05:04:13.194Z,68.30
2022-12-29T05:06:59.087Z,68.60
2022-12-29T05:09:44.725Z,68.10
2022-12-29T05:12:35.244Z,68.00
2022-12-29T05:15:20.776Z,68.00
2022-12-29T05:18:08.380Z,68.00
2022-12-29T05:20:56.283Z,68.10
2022-12-29T05:23:41.638Z,68.00
2022-12-29T05:26:27.755Z,68.30
2022-12-29T05:29:16.169Z,68.20
2022-12-29T05:32:04.127Z,68.30
2022-12-29T05:34:52.481Z,68.50
2022-12-29T05:37:38.397Z,68.60
2022-12-29T05:40:23.952Z,68.60
2022-12-29T05:43:09.459Z,68.20
2022-12-29T05:45:56.004Z,68.30
2022-12-29T05:48:41.558Z,67.20
2022-12-29T05:51:29.738Z,67.20
2022-12-29T05:54:15.640Z,67.20
2022-12-29T05:57:04.105Z,67.10
2022-12-29T05:59:49.222Z,67.10
2022-12-29T06:02:34.846Z,66.90
2022-12-29T06:05:22.640Z,66.70
2022-12-29T06:08:08.747Z,66.70
2022-12-29T06:10:54.437Z,66.70
2022-12-29T06:13:40.428Z,66.70
2022-12-29T06:16:26.038Z,66.70
2022-12-29T06:19:11.646Z,66.70
2022-12-29T06:21:57.224Z,66.50
2022-12-29T06:24:43.219Z,66.60
2022-12-29T06:27:29.993Z,66.70
2022-12-29T06:30:16.037Z,66.60
2022-12-29T06:33:04.460Z,66.40
2022-12-29T06:35:50.533Z,66.30
2022-12-29T06:38:36.287Z,66.50
2022-12-29T06:41:26.938Z,66.30
2022-12-29T06:44:18.059Z,67.10
2022-12-29T06:47:03.255Z,66.50
2022-12-29T06:49:48.821Z,66.40
2022-12-29T06:52:34.604Z,66.60
2022-12-29T06:55:20.292Z,66.60
2022-12-29T06:58:05.926Z,66.80
2022-12-29T07:00:51.654Z,66.80
2022-12-29T07:03:37.585Z,67.10
2022-12-29T07:06:25.188Z,67.40
2022-12-29T07:09:10.924Z,67.60
2022-12-29T07:11:56.561Z,68.00
2022-12-29T07:14:43.532Z,68.50
2022-12-29T07:17:29.439Z,68.20
2022-12-29T07:20:15.256Z,69.70
2022-12-29T07:23:02.665Z,70.00
2022-12-29T07:25:50.115Z,68.70
2022-12-29T07:28:39.139Z,68.70
2022-12-29T07:31:26.702Z,69.00
2022-12-29T07:34:12.424Z,69.20
2022-12-29T07:36:57.989Z,69.00
2022-12-29T07:39:43.247Z,68.90
2022-12-29T07:42:29.001Z,69.20
2022-12-29T07:45:14.756Z,70.40
2022-12-29T07:48:00.510Z,70.80
2022-12-29T07:50:46.332Z,70.90
2022-12-29T07:53:32.137Z,71.20
2022-12-29T07:56:17.384Z,71.40
2022-12-29T07:59:05.712Z,69.90
2022-12-29T08:01:51.765Z,70.60
2022-12-29T08:04:37.380Z,69.50
2022-12-29T08:07:26.317Z,68.70
2022-12-29T08:10:14.619Z,68.40
2022-12-29T08:13:02.440Z,68.40
2022-12-29T08:15:48.366Z,68.00
2022-12-29T08:18:33.936Z,68.00
2022-12-29T08:21:19.654Z,67.70
2022-12-29T08:24:07.785Z,67.90
2022-12-29T08:26:53.645Z,67.80
2022-12-29T08:29:39.671Z,67.30
2022-12-29T08:32:27.589Z,67.40
2022-12-29T08:35:13.771Z,67.60
2022-12-29T08:37:59.358Z,67.80
2022-12-29T08:40:45.393Z,68.00
2022-12-29T08:43:30.812Z,68.50
2022-12-29T08:46:17.526Z,68.70
2022-12-29T08:49:05.231Z,68.80
2022-12-29T08:51:51.726Z,68.70
2022-12-29T08:54:37.347Z,69.20
2022-12-29T08:57:23.195Z,69.30
2022-12-29T09:00:10.173Z,69.20
2022-12-29T09:02:56.176Z,68.90
2022-12-29T09:05:44.757Z,68.90
2022-12-29T09:08:31.112Z,68.90
2022-12-29T09:11:24.157Z,68.80
2022-12-29T09:14:10.249Z,68.70
2022-12-29T09:17:15.009Z,69.10
2022-12-29T09:20:00.544Z,69.30
2022-12-29T09:22:46.866Z,69.60
2022-12-29T09:25:34.908Z,69.70
2022-12-29T09:28:20.993Z,69.90
2022-12-29T09:31:06.992Z,69.90
2022-12-29T09:33:52.530Z,70.00
2022-12-29T09:36:37.984Z,69.70
2022-12-29T09:39:24.891Z,69.50
2022-12-29T09:42:17.758Z,69.30
2022-12-29T09:45:21.513Z,69.30
2022-12-29T09:48:17.693Z,69.20
2022-12-29T09:51:09.751Z,69.00
2022-12-29T09:54:01.368Z,68.80
2022-12-29T09:56:48.213Z,68.40
2022-12-29T09:59:47.450Z,67.40
2022-12-29T10:02:35.722Z,67.20
2022-12-29T10:05:33.429Z,66.20
2022-12-29T10:08:45.572Z,65.60
2022-12-29T10:11:51.059Z,65.90
2022-12-29T10:15:10.322Z,66.00
2022-12-29T10:18:33.757Z,65.90
2022-12-29T10:21:33.796Z,66.30
2022-12-29T10:24:22.928Z,66.40
2022-12-29T10:27:14.125Z,66.50
2022-12-29T10:30:02.105Z,66.40
2022-12-29T10:33:00.952Z,66.60
2022-12-29T10:35:48.605Z,65.50
2022-12-29T10:38:47.862Z,64.10
2022-12-29T10:41:44.785Z,63.20
2022-12-29T10:44:32.600Z,62.60
2022-12-29T10:47:21.382Z,62.30
2022-12-29T10:50:07.262Z,62.70
2022-12-29T10:52:54.044Z,62.30
2022-12-29T10:55:42.913Z,62.20
2022-12-29T10:58:30.446Z,61.20
2022-12-29T11:01:19.227Z,60.80
2022-12-29T11:04:21.419Z,60.80
2022-12-29T11:07:13.324Z,60.30
2022-12-29T11:10:20.060Z,60.00
2022-12-29T11:13:16.106Z,59.60
2022-12-29T11:16:03.915Z,59.80
2022-12-29T11:18:49.658Z,59.50
2022-12-29T11:21:42.867Z,59.50
2022-12-29T11:24:30.392Z,59.70
2022-12-29T11:27:23.851Z,60.10
2022-12-29T11:30:25.335Z,60.60
2022-12-29T11:33:13.426Z,60.90
2022-12-29T11:36:14.936Z,60.80
2022-12-29T11:39:07.627Z,61.30
2022-12-29T11:41:56.333Z,62.00
2022-12-29T11:44:48.232Z,63.70
2022-12-29T11:47:34.542Z,63.70
2022-12-29T11:50:21.856Z,64.50
2022-12-29T11:53:29.255Z,65.40
2022-12-29T11:56:21.255Z,65.60
2022-12-29T11:59:35.299Z,65.50
2022-12-29T12:02:20.852Z,65.50
2022-12-29T12:05:15.454Z,66.20
2022-12-29T12:08:10.696Z,66.70
2022-12-29T12:11:05.491Z,68.00
2022-12-29T12:14:02.266Z,69.00
2022-12-29T12:16:58.111Z,69.40
2022-12-29T12:19:57.861Z,70.90
2022-12-29T12:22:50.755Z,71.60
2022-12-29T12:25:43.741Z,72.60
2022-12-29T12:28:45.955Z,73.30
2022-12-29T12:31:55.443Z,73.30
2022-12-29T12:34:44.964Z,73.50
2022-12-29T12:37:32.370Z,73.40
2022-12-29T12:40:29.010Z,73.70
2022-12-29T12:43:52.337Z,73.90
2022-12-29T12:46:50.668Z,73.50
2022-12-29T12:50:18.294Z,73.60
2022-12-29T12:53:19.365Z,73.60
2022-12-29T12:56:30.729Z,73.30
2022-12-29T12:59:39.217Z,72.70
2022-12-29T13:03:06.790Z,73.00
2022-12-29T13:06:07.005Z,73.30
2022-12-29T13:09:00.927Z,73.30
2022-12-29T13:12:05.250Z,74.00
2022-12-29T13:15:28.192Z,74.40
2022-12-29T13:18:43.139Z,75.10
2022-12-29T13:21:38.338Z,75.70
2022-12-29T13:24:42.632Z,75.80
2022-12-29T13:27:37.563Z,76.40
2022-12-29T13:30:30.560Z,76.50
2022-12-29T13:33:53.584Z,77.20
2022-12-29T13:36:46.032Z,77.50
2022-12-29T13:39:37.411Z,77.80
2022-12-29T13:42:25.355Z,77.60
2022-12-29T13:45:22.090Z,77.70
2022-12-29T13:48:26.189Z,76.50
2022-12-29T13:51:12.868Z,75.10
2022-12-29T13:54:37.063Z,75.50
2022-12-29T13:57:55.116Z,75.50
2022-12-29T14:01:04.467Z,75.80
2022-12-29T14:03:55.678Z,76.40
2022-12-29T14:06:41.863Z,76.40
2022-12-29T14:09:59.645Z,76.60
2022-12-29T14:12:45.339Z,76.90
2022-12-29T14:15:34.371Z,77.30
2022-12-29T14:18:23.155Z,77.80
2022-12-29T14:21:11.449Z,78.00
2022-12-29T14:24:39.905Z,78.50
2022-12-29T14:27:31.496Z,78.50
2022-12-29T14:30:53.944Z,78.50
2022-12-29T14:33:39.503Z,79.00
2022-12-29T14:36:35.211Z,78.80
2022-12-29T14:39:42.251Z,79.30
2022-12-29T14:42:32.051Z,79.50
2022-12-29T14:45:17.697Z,79.90
2022-12-29T14:48:33.868Z,79.90
2022-12-29T14:51:32.415Z,79.30
2022-12-29T14:54:39.808Z,78.60
2022-12-29T14:57:41.393Z,78.20
2022-12-29T15:00:37.409Z,78.00
2022-12-29T15:03:29.999Z,77.90
2022-12-29T15:06:19.883Z,78.00
2022-12-29T15:09:15.560Z,77.90
2022-12-29T15:12:20.805Z,78.00
2022-12-29T15:15:37.474Z,77.90
2022-12-29T15:18:33.296Z,77.40
2022-12-29T15:21:26.328Z,77.30
2022-12-29T15:24:15.209Z,77.70
2022-12-29T15:27:04.693Z,78.00
2022-12-29T15:30:17.860Z,77.50
2022-12-29T15:33:04.433Z,76.80
2022-12-29T15:35:55.467Z,77.50
2022-12-29T15:38:42.079Z,79.80
2022-12-29T15:42:01.301Z,80.90
2022-12-29T15:44:47.991Z,81.90
2022-12-29T15:47:39.717Z,82.80
2022-12-29T15:50:34.652Z,83.10
2022-12-29T15:53:32.091Z,83.10
2022-12-29T15:56:17.931Z,83.00
2022-12-29T15:59:03.350Z,84.00
2022-12-29T16:01:48.976Z,83.60
2022-12-29T16:04:54.095Z,84.10
2022-12-29T16:07:57.764Z,83.30
2022-12-29T16:10:44.414Z,83.10
2022-12-29T16:13:40.648Z,83.10
2022-12-29T16:16:30.849Z,82.50
2022-12-29T16:19:30.193Z,82.10
2022-12-29T16:22:28.575Z,80.60
2022-12-29T16:25:20.897Z,80.00
2022-12-29T16:28:22.452Z,79.80
2022-12-29T16:31:33.464Z,80.20
2022-12-29T16:34:31.347Z,79.30
2022-12-29T16:37:39.013Z,78.40
2022-12-29T16:40:31.374Z,78.30
2022-12-29T16:43:29.401Z,76.70
2022-12-29T16:46:27.820Z,76.10
2022-12-29T16:49:23.851Z,75.60
2022-12-29T16:52:34.504Z,74.50
2022-12-29T16:55:21.178Z,73.60
2022-12-29T16:58:06.795Z,73.20
2022-12-29T17:00:58.421Z,73.10
2022-12-29T17:03:51.178Z,73.00
2022-12-29T17:06:37.035Z,72.70
2022-12-29T17:09:26.748Z,72.50
2022-12-29T17:12:18.661Z,72.00
2022-12-29T17:15:13.537Z,71.60
2022-12-29T17:18:00.809Z,71.10
2022-12-29T17:20:46.510Z,70.70
2022-12-29T17:23:35.136Z,69.90
2022-12-29T17:26:20.927Z,68.60
2022-12-29T17:29:06.785Z,68.10
2022-12-29T17:31:54.799Z,66.40
2022-12-29T17:34:41.845Z,65.50
2022-12-29T17:37:30.001Z,65.40
2022-12-29T17:40:19.117Z,65.60
2022-12-29T17:43:04.327Z,64.30
2022-12-29T17:45:58.437Z,63.80
2022-12-29T17:48:48.083Z,63.10
2022-12-29T17:51:37.627Z,62.80
2022-12-29T17:54:25.730Z,62.30
2022-12-29T17:57:19.358Z,62.30
2022-12-29T18:00:05.254Z,62.30
2022-12-29T18:02:52.782Z,62.10
2022-12-29T18:05:38.442Z,62.20
2022-12-29T18:08:28.591Z,62.60
2022-12-29T18:11:25.807Z,63.20
2022-12-29T18:14:16.227Z,64.40
2022-12-29T18:17:02.932Z,65.70
2022-12-29T18:19:48.303Z,63.90
2022-12-29T18:22:34.304Z,65.10
2022-12-29T18:25:28.690Z,65.50
2022-12-29T18:28:14.651Z,65.90
2022-12-29T18:31:06.141Z,66.40
2022-12-29T18:33:54.386Z,66.60
2022-12-29T18:36:42.029Z,67.00
2022-12-29T18:39:29.897Z,66.60
2022-12-29T18:42:18.315Z,66.60
2022-12-29T18:45:19.201Z,66.90
2022-12-29T18:48:05.281Z,67.10
2022-12-29T18:50:53.378Z,67.60
2022-12-29T18:53:39.104Z,67.40
2022-12-29T18:56:24.973Z,67.50
2022-12-29T18:59:10.702Z,67.50
2022-12-29T19:01:56.210Z,68.00
2022-12-29T19:04:41.763Z,67.00
2022-12-29T19:07:29.749Z,66.90
2022-12-29T19:10:16.135Z,67.10
2022-12-29T19:13:02.235Z,66.60
2022-12-29T19:15:48.186Z,66.60
2022-12-29T19:18:45.414Z,66.60
2022-12-29T19:21:33.424Z,67.00
2022-12-29T19:24:18.973Z,67.60
2022-12-29T19:27:04.503Z,68.20
2022-12-29T19:29:54.294Z,68.70
2022-12-29T19:32:42.159Z,69.60
2022-12-29T19:35:29.570Z,69.90
2022-12-29T19:38:15.057Z,70.90
2022-12-29T19:41:06.655Z,71.60
2022-12-29T19:43:52.173Z,72.60
2022-12-29T19:46:37.802Z,73.00
2022-12-29T19:49:24.222Z,73.60
2022-12-29T19:52:09.668Z,74.10
2022-12-29T19:54:56.142Z,74.00
2022-12-29T19:57:47.805Z,73.50
2022-12-29T20:00:35.882Z,73.00
2022-12-29T20:03:21.745Z,72.60
2022-12-29T20:06:11.285Z,72.70
2022-12-29T20:08:56.541Z,72.50
2022-12-29T20:11:44.903Z,72.50
2022-12-29T20:14:30.213Z,72.20
2022-12-29T20:17:32.573Z,72.30
2022-12-29T20:20:26.912Z,72.20
2022-12-29T20:23:12.570Z,72.10
2022-12-29T20:25:59.952Z,72.10
2022-12-29T20:28:49.144Z,72.00
2022-12-29T20:31:37.288Z,72.20
2022-12-29T20:34:22.795Z,72.10
2022-12-29T20:37:08.752Z,72.10
2022-12-29T20:39:54.062Z,71.70
2022-12-29T20:42:39.770Z,71.70
2022-12-29T20:45:25.567Z,71.40
2022-12-29T20:48:13.260Z,70.70
2022-12-29T20:51:01.409Z,70.40
2022-12-29T20:53:49.599Z,69.70
2022-12-29T20:56:35.149Z,69.20
2022-12-29T20:59:28.859Z,68.70
2022-12-29T21:02:22.829Z,68.60
2022-12-29T21:05:25.440Z,68.20
2022-12-29T21:08:13.761Z,67.30
2022-12-29T21:10:59.500Z,68.20
2022-12-29T21:13:47.833Z,68.10
2022-12-29T21:16:33.729Z,68.20
2022-12-29T21:19:19.145Z,68.10
2022-12-29T21:22:04.799Z,68.10
2022-12-29T21:24:50.320Z,68.10
2022-12-29T21:27:35.977Z,68.10
2022-12-29T21:30:24.008Z,68.10
2022-12-29T21:33:09.823Z,68.20
2022-12-29T21:35:58.060Z,68.40
2022-12-29T21:38:44.098Z,68.30
2022-12-29T21:41:29.489Z,68.30
2022-12-29T21:44:33.940Z,68.00
2022-12-29T21:47:19.436Z,68.00
2022-12-29T21:50:05.609Z,67.90
2022-12-29T21:52:54.307Z,67.80
2022-12-29T21:55:39.640Z,68.00
2022-12-29T21:58:43.776Z,68.70
2022-12-29T22:01:49.976Z,69.30
2022-12-29T22:04:53.770Z,69.90
2022-12-29T22:07:57.653Z,70.10
2022-12-29T22:11:06.523Z,69.90
2022-12-29T22:13:56.263Z,70.10
2022-12-29T22:16:45.384Z,70.00
2022-12-29T22:19:31.001Z,70.00
2022-12-29T22:22:18.826Z,69.80
2022-12-29T22:25:07.445Z,70.10
2022-12-29T22:27:58.892Z,69.30
2022-12-29T22:30:44.943Z,69.20
2022-12-29T22:33:31.168Z,68.90
2022-12-29T22:36:18.879Z,68.20
2022-12-29T22:39:04.153Z,68.30
2022-12-29T22:41:49.747Z,68.40
2022-12-29T22:44:38.000Z,68.90
2022-12-29T22:47:23.313Z,68.20
2022-12-29T22:50:09.670Z,68.50
2022-12-29T22:52:54.967Z,68.20
2022-12-29T22:55:40.443Z,68.20
2022-12-29T22:58:25.617Z,68.60
2022-12-29T23:01:16.679Z,68.50
2022-12-29T23:04:55.522Z,68.70
2022-12-29T23:07:15.475Z,69.10
2022-12-29T23:10:01.475Z,67.10
2022-12-29T23:12:47.154Z,66.90
2022-12-29T23:15:37.781Z,66.70
2022-12-29T23:18:24.064Z,66.40
2022-12-29T23:21:10.180Z,65.90
2022-12-29T23:24:04.195Z,65.70
2022-12-29T23:26:52.724Z,65.10
2022-12-29T23:29:40.751Z,64.90
2022-12-29T23:32:28.115Z,64.70
2022-12-29T23:35:13.692Z,64.40
2022-12-29T23:37:58.994Z,64.10
2022-12-29T23:40:45.288Z,64.20
2022-12-29T23:43:33.356Z,63.70
2022-12-29T23:46:25.706Z,63.50
2022-12-29T23:49:11.790Z,63.60
2022-12-29T23:51:57.190Z,63.60
2022-12-29T23:54:45.553Z,63.60
2022-12-29T23:57:31.166Z,64.10
